KHWD/HWD METAR and TAF weather

Enter ICAO airport designator
Station Type Date Time Source
KHWD METAR 2022/05/26 03:54 UTC NOAA

KHWD 260354Z AUTO 31007KT 10SM CLR 16/10 A2981 RMK AO2 SLP105 T01560100


Station Type Date Time Source
KHWD Decoded METAR 2022/05/26 03:54 UTC NOAA

HAYWARD AIR TERMINAL, CA, United States (KHWD) 37-40N 122-07W 21M
May 25, 2022 - 11:54 PM EDT / 2022.05.26 0354 UTC
Wind: from the NW (310 degrees) at 8 MPH (7 KT):0
Visibility: 10 mile(s):0
Sky conditions: clear
Temperature: 60.1 F (15.6 C)
Dew Point: 50.0 F (10.0 C)
Relative Humidity: 69%
Pressure (altimeter): 29.81 in. Hg (1009 hPa)
ob: KHWD 260354Z AUTO 31007KT 10SM CLR 16/10 A2981 RMK AO2 SLP105 T01560100
cycle: 4

Station Type Date Time Source
KHWD TAF UTC NOAA

Error!

Example: see airport list